RYR7NQ GMAD-LFBO
Flight info
| Callsign | RYR7NQ |
|---|---|
| Flight time | N/A |
| Altitude | 36000 |
| Route | MOGBA UH300 ESS UN871 ADUBI N871 RONNY/N0386F280 N871 TOPTU |
| Aircraft | B738/M-SDE3FGILRWY/SB1 |
Departure
| Time | 2026-05-01 14:50 |
|---|---|
| Airport | Al Massira Airport (GMAD) |
Arrival
| Time | N/A |
|---|---|
| Airport | Toulouse-Blagnac Airport (LFBO) |
| Time | Latitude | Longitude | Altitude | Speed | Heading |
|---|---|---|---|---|---|
| 2026-05-01 14:17 | 30.32880 | -9.41095 | 230 ft | 0 kts | 2° |
| 2026-05-01 14:40 | 30.32874 | -9.41095 | 230 ft | 4 kts | 2° |
| 2026-05-01 14:40 | 30.32848 | -9.41096 | 233 ft | 3 kts | 2° |
| 2026-05-01 14:40 | 30.32827 | -9.41100 | 231 ft | 4 kts | 42° |
| 2026-05-01 14:40 | 30.32814 | -9.41125 | 230 ft | 4 kts | 79° |
| 2026-05-01 14:41 | 30.32812 | -9.41155 | 230 ft | 2 kts | 91° |
| 2026-05-01 14:41 | 30.32812 | -9.41157 | 230 ft | 1 kts | 91° |
| 2026-05-01 14:43 | 30.32812 | -9.41155 | 230 ft | 1 kts | 91° |
| 2026-05-01 14:44 | 30.32811 | -9.41137 | 230 ft | 0 kts | 91° |
| 2026-05-01 14:44 | 30.32810 | -9.41100 | 230 ft | 10 kts | 92° |
| 2026-05-01 14:44 | 30.32807 | -9.40983 | 232 ft | 16 kts | 92° |
| 2026-05-01 14:45 | 30.32803 | -9.40852 | 230 ft | 16 kts | 91° |
| 2026-05-01 14:45 | 30.32748 | -9.40665 | 230 ft | 11 kts | 176° |
| 2026-05-01 14:45 | 30.32674 | -9.40666 | 232 ft | 10 kts | 181° |
| 2026-05-01 14:46 | 30.32603 | -9.40668 | 230 ft | 10 kts | 181° |
| 2026-05-01 14:46 | 30.32445 | -9.40621 | 230 ft | 16 kts | 115° |
| 2026-05-01 14:46 | 30.32435 | -9.40493 | 230 ft | 16 kts | 91° |
| 2026-05-01 14:47 | 30.32433 | -9.40361 | 230 ft | 16 kts | 91° |
| 2026-05-01 14:47 | 30.32429 | -9.40237 | 230 ft | 15 kts | 93° |
| 2026-05-01 14:47 | 30.32426 | -9.40118 | 230 ft | 14 kts | 91° |
| 2026-05-01 14:48 | 30.32419 | -9.39895 | 230 ft | 13 kts | 92° |
| 2026-05-01 14:48 | 30.32417 | -9.39791 | 230 ft | 13 kts | 91° |
| 2026-05-01 14:48 | 30.32412 | -9.39560 | 230 ft | 14 kts | 95° |
| 2026-05-01 14:49 | 30.32267 | -9.39508 | 232 ft | 12 kts | 205° |
| 2026-05-01 14:49 | 30.32232 | -9.39865 | 232 ft | 69 kts | 271° |
| 2026-05-01 14:50 | 30.32260 | -9.41050 | 239 ft | 147 kts | 271° |
| 2026-05-01 14:50 | 30.32398 | -9.44391 | 1792 ft | 163 kts | 275° |
| 2026-05-01 14:51 | 30.32625 | -9.45672 | 2614 ft | 160 kts | 283° |
| 2026-05-01 14:51 | 30.33211 | -9.47786 | 3503 ft | 185 kts | 288° |
| 2026-05-01 14:52 | 30.34170 | -9.51020 | 3954 ft | 234 kts | 289° |
| 2026-05-01 14:52 | 30.34730 | -9.52853 | 4284 ft | 250 kts | 289° |
| 2026-05-01 14:52 | 30.35971 | -9.56881 | 5295 ft | 276 kts | 289° |
| 2026-05-01 14:53 | 30.36632 | -9.58974 | 6112 ft | 279 kts | 289° |
| 2026-05-01 14:53 | 30.37326 | -9.61088 | 6848 ft | 283 kts | 289° |
| 2026-05-01 14:53 | 30.38043 | -9.63225 | 7594 ft | 286 kts | 289° |
| 2026-05-01 14:53 | 30.38763 | -9.65371 | 8382 ft | 287 kts | 289° |
| 2026-05-01 14:54 | 30.39487 | -9.67536 | 9126 ft | 290 kts | 289° |
| 2026-05-01 14:54 | 30.40222 | -9.69722 | 9907 ft | 292 kts | 289° |
| 2026-05-01 14:54 | 30.40976 | -9.71926 | 10488 ft | 301 kts | 289° |
| 2026-05-01 14:54 | 30.41940 | -9.74184 | 10629 ft | 327 kts | 306° |
| 2026-05-01 14:55 | 30.43705 | -9.75943 | 10953 ft | 345 kts | 330° |
| 2026-05-01 14:55 | 30.46000 | -9.76828 | 11556 ft | 352 kts | 351° |
| 2026-05-01 14:55 | 30.48462 | -9.76847 | 12251 ft | 356 kts | 3° |
| 2026-05-01 14:55 | 30.50939 | -9.76549 | 12936 ft | 360 kts | 5° |
| 2026-05-01 14:56 | 30.53439 | -9.76229 | 13591 ft | 363 kts | 4° |
| 2026-05-01 14:56 | 30.55967 | -9.75942 | 14219 ft | 367 kts | 3° |
| 2026-05-01 14:56 | 30.58522 | -9.75689 | 14839 ft | 370 kts | 2° |
| 2026-05-01 14:56 | 30.61105 | -9.75463 | 15484 ft | 374 kts | 1° |
| 2026-05-01 14:57 | 30.63714 | -9.75246 | 16127 ft | 378 kts | 1° |
| 2026-05-01 14:57 | 30.69011 | -9.74802 | 17406 ft | 385 kts | 0° |
| 2026-05-01 14:57 | 30.71701 | -9.74574 | 18046 ft | 389 kts | 0° |
| 2026-05-01 14:58 | 30.74414 | -9.74342 | 18607 ft | 393 kts | 0° |
| 2026-05-01 14:58 | 30.77154 | -9.74105 | 19121 ft | 397 kts | 360° |
| 2026-05-01 14:58 | 30.79917 | -9.73867 | 19661 ft | 400 kts | 360° |
| 2026-05-01 14:58 | 30.82704 | -9.73626 | 20218 ft | 403 kts | 359° |
| 2026-05-01 14:59 | 30.85512 | -9.73382 | 20773 ft | 406 kts | 359° |
| 2026-05-01 14:59 | 30.88341 | -9.73136 | 21310 ft | 410 kts | 359° |
| 2026-05-01 14:59 | 30.91201 | -9.72888 | 21834 ft | 413 kts | 359° |
| 2026-05-01 14:59 | 30.94079 | -9.72638 | 22365 ft | 416 kts | 359° |
| 2026-05-01 15:00 | 30.99903 | -9.72133 | 23366 ft | 423 kts | 359° |
| 2026-05-01 15:00 | 31.02852 | -9.71878 | 23820 ft | 426 kts | 359° |
| 2026-05-01 15:00 | 31.05821 | -9.71625 | 24232 ft | 429 kts | 359° |
| 2026-05-01 15:01 | 31.08804 | -9.71372 | 24671 ft | 431 kts | 359° |
| 2026-05-01 15:01 | 31.11799 | -9.71118 | 25121 ft | 432 kts | 359° |
| 2026-05-01 15:01 | 31.14807 | -9.70862 | 25544 ft | 435 kts | 359° |
| 2026-05-01 15:01 | 31.17830 | -9.70605 | 25980 ft | 437 kts | 359° |
| 2026-05-01 15:02 | 31.20872 | -9.70346 | 26386 ft | 439 kts | 359° |
| 2026-05-01 15:02 | 31.22894 | -9.70173 | 26648 ft | 441 kts | 359° |
| 2026-05-01 15:02 | 31.26996 | -9.69823 | 27182 ft | 444 kts | 359° |
| 2026-05-01 15:02 | 31.30085 | -9.69558 | 27567 ft | 446 kts | 359° |
| 2026-05-01 15:03 | 31.33185 | -9.69293 | 27947 ft | 448 kts | 359° |
| 2026-05-01 15:03 | 31.36298 | -9.69016 | 28322 ft | 451 kts | 1° |
| 2026-05-01 15:03 | 31.39409 | -9.68335 | 28656 ft | 459 kts | 12° |
| 2026-05-01 15:03 | 31.42392 | -9.67068 | 29009 ft | 466 kts | 21° |
| 2026-05-01 15:04 | 31.45252 | -9.65226 | 29374 ft | 472 kts | 27° |
| 2026-05-01 15:04 | 31.48051 | -9.63199 | 29711 ft | 474 kts | 28° |
| 2026-05-01 15:04 | 31.50846 | -9.61127 | 30025 ft | 477 kts | 29° |
| 2026-05-01 15:04 | 31.53654 | -9.59040 | 30319 ft | 479 kts | 28° |
| 2026-05-01 15:05 | 31.56478 | -9.56954 | 30591 ft | 480 kts | 28° |
| 2026-05-01 15:05 | 31.59317 | -9.54874 | 30865 ft | 482 kts | 28° |
| 2026-05-01 15:05 | 31.62171 | -9.52797 | 31145 ft | 483 kts | 28° |
| 2026-05-01 15:05 | 31.65026 | -9.50726 | 31503 ft | 482 kts | 28° |
| 2026-05-01 15:06 | 31.67873 | -9.48665 | 31910 ft | 480 kts | 28° |
| 2026-05-01 15:06 | 31.70710 | -9.46612 | 32297 ft | 478 kts | 28° |
| 2026-05-01 15:06 | 31.73539 | -9.44563 | 32639 ft | 478 kts | 27° |
| 2026-05-01 15:06 | 31.76374 | -9.42510 | 32934 ft | 478 kts | 27° |
| 2026-05-01 15:07 | 31.79204 | -9.40458 | 33252 ft | 478 kts | 27° |
| 2026-05-01 15:07 | 31.82027 | -9.38409 | 33626 ft | 476 kts | 27° |
| 2026-05-01 15:07 | 31.84843 | -9.36362 | 33995 ft | 475 kts | 27° |
| 2026-05-01 15:07 | 31.87651 | -9.34319 | 34275 ft | 475 kts | 27° |
| 2026-05-01 15:08 | 31.90462 | -9.32274 | 34528 ft | 475 kts | 27° |
| 2026-05-01 15:08 | 31.93270 | -9.30229 | 34815 ft | 474 kts | 27° |
| 2026-05-01 15:08 | 31.96073 | -9.28186 | 35097 ft | 473 kts | 27° |
| 2026-05-01 15:08 | 31.98865 | -9.26149 | 35365 ft | 473 kts | 27° |
| 2026-05-01 15:09 | 32.01663 | -9.24106 | 35638 ft | 473 kts | 26° |
| 2026-05-01 15:09 | 32.04462 | -9.22062 | 35821 ft | 474 kts | 26° |
| 2026-05-01 15:09 | 32.07266 | -9.20013 | 36042 ft | 474 kts | 26° |
| 2026-05-01 15:09 | 32.10064 | -9.17966 | 36316 ft | 473 kts | 26° |
| 2026-05-01 15:10 | 32.12857 | -9.15921 | 36599 ft | 472 kts | 26° |
| 2026-05-01 15:10 | 32.18430 | -9.11837 | 37034 ft | 472 kts | 26° |
| 2026-05-01 15:10 | 32.21218 | -9.09791 | 37259 ft | 471 kts | 26° |
| 2026-05-01 15:11 | 32.23959 | -9.07778 | 37526 ft | 470 kts | 26° |
| 2026-05-01 15:11 | 32.29486 | -9.03714 | 38044 ft | 467 kts | 26° |
| 2026-05-01 15:12 | 32.35040 | -8.99630 | 38122 ft | 472 kts | 26° |
| 2026-05-01 15:12 | 32.43375 | -8.93481 | 38111 ft | 468 kts | 26° |
| 2026-05-01 15:14 | 32.57080 | -8.83343 | 38122 ft | 462 kts | 26° |
| 2026-05-01 15:14 | 32.65261 | -8.77277 | 38131 ft | 463 kts | 25° |
| 2026-05-01 15:15 | 32.76223 | -8.69128 | 38136 ft | 467 kts | 26° |
| 2026-05-01 15:16 | 32.87271 | -8.60887 | 38157 ft | 471 kts | 25° |
| 2026-05-01 15:18 | 33.01208 | -8.50455 | 38134 ft | 474 kts | 26° |
| 2026-05-01 15:19 | 33.12373 | -8.42068 | 38134 ft | 474 kts | 26° |
| 2026-05-01 15:19 | 33.20724 | -8.35781 | 38133 ft | 472 kts | 26° |
| 2026-05-01 15:20 | 33.29042 | -8.29524 | 38125 ft | 470 kts | 26° |
| 2026-05-01 15:21 | 33.34569 | -8.25361 | 38127 ft | 469 kts | 26° |
| 2026-05-01 15:21 | 33.40076 | -8.21205 | 38126 ft | 468 kts | 26° |
| 2026-05-01 15:22 | 33.48316 | -8.14972 | 38129 ft | 466 kts | 26° |
| 2026-05-01 15:22 | 33.53798 | -8.10818 | 38135 ft | 466 kts | 25° |
| 2026-05-01 15:23 | 33.59280 | -8.06658 | 38135 ft | 466 kts | 26° |
| 2026-05-01 15:23 | 33.64764 | -8.02490 | 38129 ft | 467 kts | 26° |
| 2026-05-01 15:24 | 33.70258 | -7.98308 | 38151 ft | 468 kts | 26° |
| 2026-05-01 15:24 | 33.75766 | -7.94110 | 38144 ft | 469 kts | 26° |
| 2026-05-01 15:25 | 33.81289 | -7.89892 | 38139 ft | 471 kts | 26° |
| 2026-05-01 15:25 | 33.86785 | -7.85688 | 38139 ft | 472 kts | 26° |
| 2026-05-01 15:26 | 33.92329 | -7.81441 | 38141 ft | 473 kts | 26° |
| 2026-05-01 15:26 | 33.97884 | -7.77179 | 38174 ft | 474 kts | 26° |
| 2026-05-01 15:27 | 34.03447 | -7.72904 | 38145 ft | 475 kts | 26° |
| 2026-05-01 15:28 | 34.11798 | -7.66474 | 38154 ft | 475 kts | 26° |
| 2026-05-01 15:28 | 34.17366 | -7.62178 | 38142 ft | 475 kts | 26° |
| 2026-05-01 15:29 | 34.25699 | -7.55736 | 38166 ft | 474 kts | 26° |
| 2026-05-01 15:30 | 34.35858 | -7.47862 | 38147 ft | 473 kts | 26° |
| 2026-05-01 15:31 | 34.53356 | -7.34246 | 38157 ft | 471 kts | 26° |
| 2026-05-01 15:32 | 34.64372 | -7.25639 | 38148 ft | 471 kts | 26° |
| 2026-05-01 15:34 | 34.80861 | -7.12704 | 38153 ft | 472 kts | 26° |